createdAt,value
2019-04-13T00:02:26.370Z,16.91
2019-04-13T00:05:16.478Z,16.89
2019-04-13T00:07:50.696Z,16.89
2019-04-13T00:10:36.420Z,16.92
2019-04-13T00:13:09.110Z,17.02
2019-04-13T00:15:41.435Z,17.10
2019-04-13T00:18:13.899Z,17.07
2019-04-13T00:20:46.335Z,17.02
2019-04-13T00:23:18.884Z,16.95
2019-04-13T00:25:51.105Z,16.79
2019-04-13T00:28:23.979Z,16.62
2019-04-13T00:30:55.964Z,16.62
2019-04-13T00:33:28.090Z,16.54
2019-04-13T00:36:01.360Z,16.53
2019-04-13T00:38:33.907Z,16.61
2019-04-13T00:41:06.115Z,16.58
2019-04-13T00:43:39.113Z,16.59
2019-04-13T00:46:11.871Z,16.69
2019-04-13T00:48:44.367Z,16.61
2019-04-13T00:51:16.902Z,16.69
2019-04-13T00:53:50.457Z,16.69
2019-04-13T00:56:22.927Z,16.73
2019-04-13T00:58:54.944Z,16.73
2019-04-13T01:01:27.282Z,16.76
2019-04-13T01:03:59.868Z,16.57
2019-04-13T01:06:32.337Z,16.62
2019-04-13T01:09:06.742Z,16.60
2019-04-13T01:11:37.962Z,16.63
2019-04-13T01:14:10.328Z,16.64
2019-04-13T01:16:42.994Z,16.70
2019-04-13T01:19:15.329Z,16.57
2019-04-13T01:21:47.909Z,16.51
2019-04-13T01:24:19.894Z,16.62
2019-04-13T01:26:52.332Z,16.65
2019-04-13T01:29:24.864Z,16.51
2019-04-13T01:31:57.308Z,16.54
2019-04-13T01:34:29.859Z,16.52
2019-04-13T01:37:01.912Z,16.49
2019-04-13T01:39:34.375Z,16.57
2019-04-13T01:42:06.876Z,16.52
2019-04-13T01:44:39.893Z,16.57
2019-04-13T01:47:12.059Z,16.62
2019-04-13T01:49:44.131Z,16.51
2019-04-13T01:52:16.392Z,16.55
2019-04-13T01:54:48.860Z,16.58
2019-04-13T01:57:21.729Z,16.50
2019-04-13T01:59:52.735Z,16.48
2019-04-13T02:02:42.459Z,16.40
2019-04-13T02:05:45.676Z,16.37
2019-04-13T02:08:32.095Z,16.28
2019-04-13T02:11:23.453Z,16.28
2019-04-13T02:13:56.335Z,16.46
2019-04-13T02:16:28.872Z,16.38
2019-04-13T02:19:01.109Z,16.43
2019-04-13T02:21:33.895Z,16.39
2019-04-13T02:24:06.072Z,16.40
2019-04-13T02:26:38.663Z,16.37
2019-04-13T02:29:10.867Z,16.35
2019-04-13T02:31:43.033Z,16.35
2019-04-13T02:34:16.286Z,16.32
2019-04-13T02:36:49.338Z,16.36
2019-04-13T02:39:21.899Z,16.37
2019-04-13T02:41:54.628Z,16.33
2019-04-13T02:44:27.403Z,16.32
2019-04-13T02:46:59.924Z,16.32
2019-04-13T02:49:32.868Z,16.39
2019-04-13T02:52:04.936Z,16.32
2019-04-13T02:54:37.097Z,16.31
2019-04-13T02:57:09.349Z,16.32
2019-04-13T02:59:41.870Z,16.32
2019-04-13T03:02:13.911Z,16.41
2019-04-13T03:04:46.322Z,16.51
2019-04-13T03:07:18.891Z,16.53
2019-04-13T03:09:50.914Z,16.41
2019-04-13T03:12:22.965Z,16.30
2019-04-13T03:14:55.871Z,16.23
2019-04-13T03:17:49.563Z,16.19
2019-04-13T03:20:25.712Z,16.40
2019-04-13T03:22:56.721Z,16.41
2019-04-13T03:25:27.710Z,16.34
2019-04-13T03:27:58.963Z,16.39
2019-04-13T03:30:37.344Z,16.34
2019-04-13T03:33:09.905Z,16.38
2019-04-13T03:35:42.890Z,16.28
2019-04-13T03:38:15.324Z,16.35
2019-04-13T03:40:47.854Z,16.33
2019-04-13T03:43:20.016Z,16.32
2019-04-13T03:45:51.884Z,16.32
2019-04-13T03:48:24.079Z,16.27
2019-04-13T03:50:56.487Z,16.19
2019-04-13T03:53:28.875Z,16.12
2019-04-13T03:56:00.898Z,16.12
2019-04-13T03:58:33.319Z,16.22
2019-04-13T04:01:05.887Z,16.18
2019-04-13T04:03:38.430Z,16.21
2019-04-13T04:06:11.743Z,16.23
2019-04-13T04:08:44.896Z,16.35
2019-04-13T04:11:17.355Z,16.35
2019-04-13T04:13:49.884Z,16.36
2019-04-13T04:16:22.003Z,16.22
2019-04-13T04:18:54.395Z,16.17
2019-04-13T04:21:26.846Z,16.30
2019-04-13T04:23:59.323Z,16.22
2019-04-13T04:26:32.171Z,16.31
2019-04-13T04:29:04.886Z,16.36
2019-04-13T04:31:36.886Z,16.39
2019-04-13T04:34:08.888Z,16.39
2019-04-13T04:36:40.855Z,16.34
2019-04-13T04:39:13.348Z,16.35
2019-04-13T04:41:45.829Z,16.39
2019-04-13T04:44:17.938Z,16.43
2019-04-13T04:46:50.326Z,16.39
2019-04-13T04:49:23.328Z,16.50
2019-04-13T04:51:55.807Z,16.50
2019-04-13T04:54:28.328Z,16.48
2019-04-13T04:57:01.334Z,16.53
2019-04-13T04:59:34.328Z,16.69
2019-04-13T05:02:06.873Z,16.71
2019-04-13T05:04:39.323Z,16.51
2019-04-13T05:07:11.560Z,16.53
2019-04-13T05:09:44.052Z,16.93
2019-04-13T05:12:16.324Z,17.36
2019-04-13T05:14:48.910Z,17.70
2019-04-13T05:17:20.889Z,17.98
2019-04-13T05:19:53.321Z,18.17
2019-04-13T05:22:26.822Z,18.28
2019-04-13T05:24:59.883Z,18.42
2019-04-13T05:27:32.353Z,18.64
2019-04-13T05:30:04.971Z,18.75
2019-04-13T05:32:37.082Z,18.80
2019-04-13T05:35:09.373Z,18.88
2019-04-13T05:37:42.296Z,18.93
2019-04-13T05:40:14.893Z,18.92
2019-04-13T05:42:47.103Z,18.91
2019-04-13T05:45:19.866Z,18.76
2019-04-13T05:47:52.874Z,18.72
2019-04-13T05:50:25.291Z,18.64
2019-04-13T05:52:57.928Z,18.50
2019-04-13T05:55:30.110Z,18.36
2019-04-13T05:58:02.637Z,18.26
2019-04-13T06:00:34.960Z,17.99
2019-04-13T06:03:07.012Z,17.99
2019-04-13T06:05:39.100Z,17.90
2019-04-13T06:08:11.818Z,17.68
2019-04-13T06:10:47.796Z,17.49
2019-04-13T06:13:24.091Z,17.40
2019-04-13T06:15:55.845Z,17.30
2019-04-13T06:18:30.484Z,17.36
2019-04-13T06:21:04.513Z,17.33
2019-04-13T06:23:39.340Z,17.20
2019-04-13T06:26:12.109Z,17.20
2019-04-13T06:28:47.790Z,17.11
2019-04-13T06:31:38.052Z,17.86
2019-04-13T06:34:32.007Z,17.86
2019-04-13T06:37:12.153Z,18.03
2019-04-13T06:39:38.319Z,18.00
2019-04-13T06:42:10.875Z,18.01
2019-04-13T06:44:43.067Z,17.94
2019-04-13T06:47:15.858Z,17.88
2019-04-13T06:49:48.171Z,17.96
2019-04-13T06:52:21.837Z,17.84
2019-04-13T06:54:53.910Z,17.84
2019-04-13T06:57:28.864Z,17.85
2019-04-13T07:00:00.387Z,17.89
2019-04-13T07:02:32.872Z,17.89
2019-04-13T07:05:05.325Z,17.89
2019-04-13T07:08:14.827Z,17.78
2019-04-13T07:11:07.739Z,17.62
2019-04-13T07:13:48.298Z,17.80
2019-04-13T07:16:30.544Z,17.63
2019-04-13T07:19:06.128Z,17.56
2019-04-13T07:21:38.224Z,17.13
2019-04-13T07:24:11.039Z,17.13
2019-04-13T07:26:43.328Z,17.11
2019-04-13T07:29:16.038Z,17.07
2019-04-13T07:31:49.327Z,17.07
2019-04-13T07:34:22.331Z,17.11
2019-04-13T07:36:56.891Z,17.24
2019-04-13T07:39:30.049Z,17.34
2019-04-13T07:42:04.929Z,17.33
2019-04-13T07:44:59.012Z,17.29
2019-04-13T07:47:56.700Z,17.30
2019-04-13T07:50:51.490Z,17.24
2019-04-13T07:53:25.356Z,17.26
2019-04-13T07:55:58.477Z,17.22
2019-04-13T07:58:38.349Z,17.26
2019-04-13T08:01:23.251Z,17.26
2019-04-13T08:03:54.362Z,17.89
2019-04-13T08:06:26.916Z,17.98
2019-04-13T08:08:58.823Z,18.32
2019-04-13T08:11:33.783Z,18.39
2019-04-13T08:14:10.730Z,18.32
2019-04-13T08:16:41.875Z,18.37
2019-04-13T08:19:19.887Z,18.35
2019-04-13T08:21:55.594Z,18.28
2019-04-13T08:24:28.064Z,18.28
2019-04-13T08:27:00.351Z,18.24
2019-04-13T08:29:32.918Z,18.25
2019-04-13T08:32:10.509Z,18.36
2019-04-13T08:34:42.937Z,18.11
2019-04-13T08:37:15.285Z,18.11
2019-04-13T08:40:02.187Z,18.05
2019-04-13T08:42:52.508Z,18.06
2019-04-13T08:45:25.078Z,18.00
2019-04-13T08:50:40.988Z,18.11
2019-04-13T08:53:25.715Z,18.00
2019-04-13T08:55:56.692Z,18.02
2019-04-13T08:58:28.228Z,17.88
2019-04-13T09:01:01.347Z,17.80
2019-04-13T09:03:33.925Z,17.77
2019-04-13T09:06:06.337Z,17.82
2019-04-13T09:08:40.886Z,17.94
2019-04-13T09:11:16.868Z,17.92
2019-04-13T09:14:12.691Z,17.92
2019-04-13T09:16:42.342Z,17.97
2019-04-13T09:19:46.569Z,18.04
2019-04-13T09:22:22.354Z,18.08
2019-04-13T09:24:54.920Z,18.08
2019-04-13T09:27:27.262Z,18.13
2019-04-13T09:30:00.329Z,18.10
2019-04-13T09:32:33.012Z,18.22
2019-04-13T09:35:13.240Z,18.23
2019-04-13T09:37:49.034Z,18.16
2019-04-13T09:40:23.371Z,18.18
2019-04-13T09:42:55.901Z,17.98
2019-04-13T09:45:28.674Z,18.04
2019-04-13T09:48:01.348Z,18.15
2019-04-13T09:50:36.700Z,18.15
2019-04-13T09:53:08.585Z,18.04
2019-04-13T09:55:40.327Z,17.86
2019-04-13T09:58:18.828Z,17.93
2019-04-13T10:00:52.492Z,18.02
2019-04-13T10:03:25.360Z,18.00
2019-04-13T10:05:57.876Z,18.02
2019-04-13T10:08:30.042Z,18.05
2019-04-13T10:11:02.872Z,18.03
2019-04-13T10:13:49.350Z,18.09
2019-04-13T10:16:40.504Z,18.10
2019-04-13T10:19:14.008Z,18.08
2019-04-13T10:21:46.992Z,18.10
2019-04-13T10:24:23.587Z,17.97
2019-04-13T10:26:56.057Z,17.95
2019-04-13T10:29:28.926Z,17.95
2019-04-13T10:32:02.308Z,18.01
2019-04-13T10:34:38.825Z,17.93
2019-04-13T10:37:11.866Z,17.64
2019-04-13T10:39:46.546Z,17.40
2019-04-13T10:42:19.316Z,17.58
2019-04-13T10:45:01.619Z,17.31
2019-04-13T10:47:52.324Z,17.47
2019-04-13T10:50:34.100Z,17.47
2019-04-13T10:53:22.106Z,17.59
2019-04-13T10:55:59.322Z,17.90
2019-04-13T10:58:32.851Z,17.93
2019-04-13T11:01:26.013Z,18.02
2019-04-13T11:03:58.703Z,18.12
2019-04-13T11:06:33.330Z,18.13
2019-04-13T11:09:06.850Z,17.90
2019-04-13T11:11:40.020Z,18.03
2019-04-13T11:14:13.405Z,18.00
2019-04-13T11:16:48.094Z,18.06
2019-04-13T11:19:27.492Z,18.08
2019-04-13T11:21:59.883Z,18.03
2019-04-13T11:24:31.931Z,18.03
2019-04-13T11:27:05.055Z,18.07
2019-04-13T11:29:37.551Z,18.20
2019-04-13T11:32:10.020Z,18.07
2019-04-13T11:34:42.663Z,18.19
2019-04-13T11:37:17.360Z,18.14
2019-04-13T11:39:50.190Z,18.14
2019-04-13T11:42:42.479Z,18.29
2019-04-13T11:45:43.364Z,18.24
2019-04-13T11:48:34.515Z,18.20
2019-04-13T11:51:31.753Z,18.21
2019-04-13T11:54:03.995Z,18.25
2019-04-13T11:56:37.122Z,18.17
2019-04-13T11:59:10.071Z,18.09
2019-04-13T12:02:13.588Z,17.92
2019-04-13T12:05:05.528Z,17.85
2019-04-13T12:07:56.571Z,17.85
2019-04-13T12:10:47.104Z,18.26
2019-04-13T12:13:37.679Z,18.26
2019-04-13T12:16:35.716Z,18.48
2019-04-13T12:19:29.374Z,18.48
2019-04-13T12:22:11.496Z,18.50
2019-04-13T12:24:50.826Z,18.53
2019-04-13T12:27:25.869Z,18.50
2019-04-13T12:29:58.531Z,18.41
2019-04-13T12:32:33.075Z,18.34
2019-04-13T12:35:07.930Z,18.34
2019-04-13T12:37:39.835Z,18.34
2019-04-13T12:40:27.324Z,18.39
2019-04-13T12:43:00.366Z,18.28
2019-04-13T12:45:33.799Z,18.17
2019-04-13T12:48:05.965Z,17.99
2019-04-13T12:50:38.436Z,17.88
2019-04-13T12:53:10.829Z,17.85
2019-04-13T12:55:42.905Z,17.74
2019-04-13T12:58:15.067Z,17.69
2019-04-13T13:00:54.470Z,17.64
2019-04-13T13:03:27.031Z,17.55
2019-04-13T13:05:58.826Z,17.89
2019-04-13T13:08:30.588Z,18.39
2019-04-13T13:11:02.306Z,18.36
2019-04-13T13:13:33.874Z,18.36
2019-04-13T13:16:05.744Z,18.57
2019-04-13T13:18:37.482Z,18.64
2019-04-13T13:21:09.373Z,18.68
2019-04-13T13:23:41.738Z,18.68
2019-04-13T13:26:13.408Z,18.79
2019-04-13T13:28:45.037Z,18.75
2019-04-13T13:31:16.805Z,18.68
2019-04-13T13:33:48.766Z,18.58
2019-04-13T13:36:20.614Z,18.66
2019-04-13T13:38:52.753Z,18.71
2019-04-13T13:41:23.503Z,18.71
2019-04-13T13:43:55.316Z,18.63
2019-04-13T13:46:27.052Z,18.61
2019-04-13T13:48:59.064Z,18.52
2019-04-13T13:51:30.801Z,18.57
2019-04-13T13:54:03.306Z,18.65
2019-04-13T13:56:35.410Z,18.76
2019-04-13T13:59:07.302Z,18.80
2019-04-13T14:01:57.691Z,18.81
2019-04-13T14:04:29.557Z,18.62
2019-04-13T14:07:01.822Z,18.72
2019-04-13T14:12:12.382Z,18.65
2019-04-13T14:14:45.334Z,18.65
2019-04-13T14:17:18.345Z,18.65
2019-04-13T14:19:51.188Z,18.71
2019-04-13T14:22:23.317Z,18.52
2019-04-13T14:24:56.320Z,18.58
2019-04-13T14:27:28.849Z,18.65
2019-04-13T14:30:00.897Z,18.65
2019-04-13T14:32:33.374Z,18.76
2019-04-13T14:35:06.849Z,18.45
2019-04-13T14:37:38.894Z,18.44
2019-04-13T14:40:11.337Z,18.61
2019-04-13T14:42:45.552Z,18.62
2019-04-13T14:45:17.547Z,18.48
2019-04-13T14:47:49.903Z,18.57
2019-04-13T14:50:23.083Z,18.57
2019-04-13T14:52:55.922Z,18.78
2019-04-13T14:55:29.814Z,18.78
2019-04-13T14:58:02.095Z,18.80
2019-04-13T15:00:34.599Z,18.62
2019-04-13T15:03:07.047Z,18.57
2019-04-13T15:05:39.508Z,18.57
2019-04-13T15:08:11.856Z,18.67
2019-04-13T15:10:44.842Z,18.75
2019-04-13T15:13:17.318Z,18.68
2019-04-13T15:15:50.587Z,18.58
2019-04-13T15:18:50.310Z,18.66
2019-04-13T15:21:27.484Z,18.63
2019-04-13T15:23:57.925Z,18.54
2019-04-13T15:29:18.104Z,18.65
2019-04-13T15:31:48.902Z,18.67
2019-04-13T15:34:26.307Z,18.74
2019-04-13T15:36:58.423Z,18.65
2019-04-13T15:39:29.281Z,18.61
2019-04-13T15:42:08.830Z,18.51
2019-04-13T15:44:36.687Z,18.43
2019-04-13T15:47:13.946Z,18.44
2019-04-13T15:49:42.461Z,18.48
2019-04-13T15:52:14.489Z,18.58
2019-04-13T15:54:47.263Z,18.58
2019-04-13T15:57:20.069Z,18.69
2019-04-13T15:59:52.401Z,18.51
2019-04-13T16:02:24.982Z,18.50
2019-04-13T16:04:58.188Z,18.55
2019-04-13T16:07:30.149Z,18.66
2019-04-13T16:10:07.546Z,18.63
2019-04-13T16:12:49.350Z,18.38
2019-04-13T16:15:25.066Z,18.28
2019-04-13T16:17:58.096Z,18.44
2019-04-13T16:20:29.882Z,18.49
2019-04-13T16:23:02.567Z,18.46
2019-04-13T16:28:26.522Z,18.35
2019-04-13T16:31:16.723Z,18.15
2019-04-13T16:34:07.956Z,18.24
2019-04-13T16:36:48.357Z,18.27
2019-04-13T16:39:23.227Z,18.28
2019-04-13T16:42:01.603Z,18.18
2019-04-13T16:44:45.493Z,18.28
2019-04-13T16:47:42.383Z,18.23
2019-04-13T16:50:26.025Z,18.29
2019-04-13T16:53:06.012Z,18.32
2019-04-13T16:55:43.827Z,18.35
2019-04-13T16:58:34.803Z,18.22
2019-04-13T17:01:25.288Z,18.01
2019-04-13T17:04:17.211Z,17.98
2019-04-13T17:06:50.532Z,18.28
2019-04-13T17:09:23.380Z,18.35
2019-04-13T17:12:13.238Z,18.35
2019-04-13T17:14:33.483Z,18.23
2019-04-13T17:17:07.780Z,18.23
2019-04-13T17:19:55.610Z,18.10
2019-04-13T17:22:56.251Z,18.31
2019-04-13T17:25:41.370Z,18.36
2019-04-13T17:28:39.418Z,18.33
2019-04-13T17:31:30.397Z,18.39
2019-04-13T17:34:14.467Z,18.38
2019-04-13T17:36:50.030Z,18.47
2019-04-13T17:40:01.467Z,18.39
2019-04-13T17:42:53.242Z,18.18
2019-04-13T17:45:59.404Z,18.16
2019-04-13T17:51:42.507Z,18.39
2019-04-13T17:54:53.923Z,18.22
2019-04-13T17:57:49.468Z,18.36
2019-04-13T18:00:40.649Z,18.31
2019-04-13T18:03:30.873Z,18.31
2019-04-13T18:06:25.707Z,18.29
2019-04-13T18:09:16.384Z,18.33
2019-04-13T18:12:12.198Z,18.09
2019-04-13T18:15:07.521Z,18.07
2019-04-13T18:18:06.163Z,18.06
2019-04-13T18:20:48.842Z,18.06
2019-04-13T18:23:21.315Z,18.24
2019-04-13T18:25:57.312Z,18.21
2019-04-13T18:28:29.341Z,18.22
2019-04-13T18:31:04.196Z,18.22
2019-04-13T18:33:38.875Z,18.12
2019-04-13T18:36:13.315Z,18.07
2019-04-13T18:39:23.222Z,18.05
2019-04-13T18:41:56.884Z,18.08
2019-04-13T18:44:30.009Z,18.06
2019-04-13T18:47:03.611Z,17.81
2019-04-13T18:50:01.689Z,17.69
2019-04-13T18:52:38.748Z,17.88
2019-04-13T18:55:20.156Z,18.09
2019-04-13T18:57:56.961Z,18.23
2019-04-13T19:00:30.045Z,18.21
2019-04-13T19:03:30.184Z,18.18
2019-04-13T19:07:00.607Z,18.39
2019-04-13T19:09:34.333Z,18.20
2019-04-13T19:12:07.055Z,18.15
2019-04-13T19:14:39.635Z,18.20
2019-04-13T19:17:12.349Z,18.26
2019-04-13T19:19:45.057Z,18.32
2019-04-13T19:22:17.340Z,18.27
2019-04-13T19:24:59.866Z,18.25
2019-04-13T19:27:38.370Z,18.17
2019-04-13T19:30:11.692Z,18.10
2019-04-13T19:32:44.427Z,18.14
2019-04-13T19:35:18.009Z,18.15
2019-04-13T19:40:38.393Z,18.13
2019-04-13T19:43:16.612Z,17.99
2019-04-13T19:45:44.831Z,17.96
2019-04-13T19:48:16.868Z,17.94
2019-04-13T19:50:48.957Z,17.98
2019-04-13T19:53:58.372Z,17.95
2019-04-13T19:56:31.336Z,17.83
2019-04-13T19:59:04.061Z,17.90
2019-04-13T20:01:36.601Z,17.84
2019-04-13T20:04:08.261Z,17.74
2019-04-13T20:06:40.523Z,17.77
2019-04-13T20:09:12.844Z,17.78
2019-04-13T20:11:45.634Z,17.78
2019-04-13T20:14:22.736Z,17.65
2019-04-13T20:16:55.623Z,17.65
2019-04-13T20:19:27.303Z,17.78
2019-04-13T20:22:00.157Z,17.82
2019-04-13T20:24:33.165Z,17.66
2019-04-13T20:27:08.792Z,17.65
2019-04-13T20:29:42.666Z,17.66
2019-04-13T20:32:17.251Z,17.61
2019-04-13T20:34:53.442Z,17.57
2019-04-13T20:37:25.345Z,17.60
2019-04-13T20:40:03.539Z,17.61
2019-04-13T20:42:39.504Z,17.55
2019-04-13T20:45:18.523Z,17.55
2019-04-13T20:47:52.283Z,17.58
2019-04-13T20:50:25.508Z,17.62
2019-04-13T20:52:57.877Z,17.67
2019-04-13T20:56:23.020Z,17.62
2019-04-13T20:58:55.899Z,17.59
2019-04-13T21:01:40.694Z,17.48
2019-04-13T21:04:17.188Z,17.47
2019-04-13T21:06:52.108Z,17.48
2019-04-13T21:09:27.465Z,17.46
2019-04-13T21:11:59.851Z,17.53
2019-04-13T21:14:39.056Z,17.43
2019-04-13T21:17:07.021Z,17.43
2019-04-13T21:19:39.900Z,17.36
2019-04-13T21:22:12.319Z,17.44
2019-04-13T21:24:45.852Z,17.37
2019-04-13T21:27:18.330Z,17.31
2019-04-13T21:29:50.795Z,17.39
2019-04-13T21:32:24.595Z,17.31
2019-04-13T21:34:55.746Z,17.35
2019-04-13T21:37:29.140Z,17.28
2019-04-13T21:40:04.312Z,17.19
2019-04-13T21:42:38.035Z,17.24
2019-04-13T21:45:10.933Z,17.21
2019-04-13T21:47:43.334Z,17.31
2019-04-13T21:50:54.417Z,17.20
2019-04-13T21:53:52.870Z,17.09
2019-04-13T21:56:28.286Z,17.09
2019-04-13T21:58:59.901Z,17.06
2019-04-13T22:01:56.255Z,17.03
2019-04-13T22:04:28.885Z,17.09
2019-04-13T22:07:54.915Z,17.05
2019-04-13T22:10:26.934Z,17.09
2019-04-13T22:13:01.036Z,17.04
2019-04-13T22:15:33.431Z,17.08
2019-04-13T22:18:06.190Z,17.02
2019-04-13T22:20:38.876Z,17.04
2019-04-13T22:23:11.379Z,17.09
2019-04-13T22:25:44.982Z,17.06
2019-04-13T22:28:19.560Z,16.96
2019-04-13T22:31:17.724Z,16.99
2019-04-13T22:33:50.265Z,16.97
2019-04-13T22:36:28.919Z,17.03
2019-04-13T22:39:03.197Z,16.95
2019-04-13T22:41:37.295Z,16.95
2019-04-13T22:44:09.891Z,17.02
2019-04-13T22:46:43.402Z,17.00
2019-04-13T22:49:34.512Z,16.95
2019-04-13T22:52:28.333Z,16.94
2019-04-13T22:55:10.031Z,16.96
2019-04-13T22:57:45.662Z,17.08
2019-04-13T23:00:25.815Z,17.00
2019-04-13T23:02:58.322Z,16.94
2019-04-13T23:05:31.069Z,16.91
2019-04-13T23:08:05.153Z,16.88
2019-04-13T23:10:37.910Z,16.98
2019-04-13T23:13:10.461Z,16.93
2019-04-13T23:15:44.032Z,16.94
2019-04-13T23:18:21.064Z,16.72
2019-04-13T23:20:54.391Z,16.72
2019-04-13T23:23:26.883Z,16.91
2019-04-13T23:25:59.429Z,16.85
2019-04-13T23:28:33.686Z,16.80
2019-04-13T23:31:08.504Z,16.81
2019-04-13T23:33:41.113Z,16.66
2019-04-13T23:36:13.883Z,16.66
2019-04-13T23:38:48.550Z,16.77
2019-04-13T23:41:21.039Z,16.76
2019-04-13T23:43:54.069Z,16.76
2019-04-13T23:46:27.104Z,16.77
2019-04-13T23:49:01.210Z,16.79
2019-04-13T23:51:33.915Z,16.71
2019-04-13T23:54:12.970Z,16.59
2019-04-13T23:57:13.931Z,16.61
2019-04-13T23:59:56.736Z,16.63
